createdAt,value
2017-06-27T00:02:00.415Z,18.80
2017-06-27T00:04:28.941Z,19.30
2017-06-27T00:06:57.868Z,20.10
2017-06-27T00:09:26.629Z,19.00
2017-06-27T00:11:56.032Z,21.23
2017-06-27T00:14:24.952Z,23.70
2017-06-27T00:16:53.691Z,22.63
2017-06-27T00:19:22.491Z,23.37
2017-06-27T00:21:51.493Z,25.90
2017-06-27T00:24:19.767Z,22.50
2017-06-27T00:26:48.442Z,21.07
2017-06-27T00:29:17.440Z,21.93
2017-06-27T00:31:46.235Z,21.97
2017-06-27T00:34:14.879Z,21.53
2017-06-27T00:36:44.570Z,22.20
2017-06-27T00:39:13.314Z,23.47
2017-06-27T00:41:42.111Z,22.03
2017-06-27T00:44:11.107Z,21.90
2017-06-27T00:46:39.955Z,21.87
2017-06-27T00:49:08.243Z,23.30
2017-06-27T00:51:37.115Z,21.93
2017-06-27T00:54:06.675Z,21.20
2017-06-27T00:56:35.270Z,21.50
2017-06-27T00:59:04.086Z,21.83
2017-06-27T01:01:32.243Z,22.20
2017-06-27T01:04:00.867Z,20.60
2017-06-27T01:06:29.636Z,20.67
2017-06-27T01:08:58.387Z,21.60
2017-06-27T01:11:27.271Z,22.20
2017-06-27T01:13:56.271Z,22.73
2017-06-27T01:16:25.266Z,22.50
2017-06-27T01:18:54.163Z,22.13
2017-06-27T01:21:23.155Z,21.43
2017-06-27T01:23:52.150Z,21.40
2017-06-27T01:26:20.994Z,21.60
2017-06-27T01:28:50.843Z,22.97
2017-06-27T01:31:19.635Z,20.23
2017-06-27T01:33:48.427Z,21.47
2017-06-27T01:36:17.322Z,23.10
2017-06-27T01:38:46.124Z,21.20
2017-06-27T01:41:14.439Z,22.33
2017-06-27T01:43:43.227Z,22.10
2017-06-27T01:46:11.973Z,23.83
2017-06-27T01:48:40.723Z,21.07
2017-06-27T01:51:10.363Z,21.50
2017-06-27T01:53:39.059Z,25.10
2017-06-27T01:56:08.056Z,24.33
2017-06-27T01:58:37.047Z,21.80
2017-06-27T02:01:05.938Z,24.03
2017-06-27T02:03:34.683Z,22.27
2017-06-27T02:06:03.011Z,25.43
2017-06-27T02:08:31.683Z,24.80
2017-06-27T02:11:00.588Z,21.60
2017-06-27T02:13:29.481Z,23.20
2017-06-27T02:15:58.327Z,22.17
2017-06-27T02:18:27.766Z,21.23
2017-06-27T02:20:56.668Z,22.90
2017-06-27T02:23:25.559Z,24.37
2017-06-27T02:25:54.351Z,21.70
2017-06-27T02:28:23.447Z,22.87
2017-06-27T02:30:52.291Z,22.07
2017-06-27T02:33:20.471Z,23.53
2017-06-27T02:35:50.278Z,22.93
2017-06-27T02:38:19.723Z,22.80
2017-06-27T02:40:48.511Z,22.90
2017-06-27T02:43:17.516Z,21.77
2017-06-27T02:45:46.406Z,20.43
2017-06-27T02:48:15.152Z,21.47
2017-06-27T02:50:44.798Z,21.80
2017-06-27T02:53:13.491Z,19.43
2017-06-27T02:55:42.283Z,21.87
2017-06-27T02:58:11.231Z,20.33
2017-06-27T03:00:40.775Z,20.63
2017-06-27T03:03:09.470Z,21.33
2017-06-27T03:05:38.458Z,19.67
2017-06-27T03:08:07.311Z,20.40
2017-06-27T03:10:36.903Z,21.40
2017-06-27T03:13:05.850Z,21.90
2017-06-27T03:15:34.650Z,20.80
2017-06-27T03:18:03.495Z,18.70
2017-06-27T03:20:33.092Z,21.00
2017-06-27T03:23:01.740Z,20.77
2017-06-27T03:25:31.339Z,18.77
2017-06-27T03:28:00.331Z,20.13
2017-06-27T03:30:29.022Z,20.00
2017-06-27T03:32:57.914Z,20.43
2017-06-27T03:35:26.918Z,19.90
2017-06-27T03:37:55.804Z,19.50
2017-06-27T03:40:24.390Z,20.27
2017-06-27T03:42:53.475Z,20.97
2017-06-27T03:45:22.268Z,20.30
2017-06-27T03:47:50.956Z,20.20
2017-06-27T03:50:19.955Z,19.70
2017-06-27T03:52:48.807Z,21.60
2017-06-27T03:55:16.988Z,19.13
2017-06-27T03:57:45.807Z,20.70
2017-06-27T04:00:14.599Z,20.80
2017-06-27T04:02:43.291Z,19.50
2017-06-27T04:05:12.339Z,19.60
2017-06-27T04:07:41.888Z,19.40
2017-06-27T04:10:10.575Z,20.50
2017-06-27T04:12:39.472Z,19.50
2017-06-27T04:15:08.263Z,20.93
2017-06-27T04:17:36.851Z,19.60
2017-06-27T04:20:05.187Z,20.20
2017-06-27T04:22:34.670Z,22.33
2017-06-27T04:25:03.318Z,18.80
2017-06-27T04:27:32.318Z,21.00
2017-06-27T04:30:01.163Z,20.13
2017-06-27T04:32:30.603Z,19.73
2017-06-27T04:34:59.504Z,18.63
2017-06-27T04:37:28.395Z,20.80
2017-06-27T04:39:56.623Z,18.77
2017-06-27T04:42:24.963Z,19.00
2017-06-27T04:44:54.048Z,17.63
2017-06-27T04:47:22.939Z,21.10
2017-06-27T04:49:51.987Z,17.60
2017-06-27T04:52:20.211Z,17.83
2017-06-27T04:54:48.379Z,17.30
2017-06-27T04:57:17.279Z,17.20
2017-06-27T04:59:45.451Z,17.07
2017-06-27T05:02:14.235Z,18.90
2017-06-27T05:04:43.235Z,19.23
2017-06-27T05:07:12.082Z,20.57
2017-06-27T05:09:41.523Z,19.83
2017-06-27T05:12:10.519Z,19.83
2017-06-27T05:14:39.419Z,18.90
2017-06-27T05:17:08.164Z,18.90
2017-06-27T05:19:36.467Z,18.17
2017-06-27T05:22:05.215Z,16.17
2017-06-27T05:24:33.487Z,15.77
2017-06-27T05:27:02.335Z,17.00
2017-06-27T05:29:31.037Z,17.27
2017-06-27T05:31:59.916Z,16.60
2017-06-27T05:47:24.507Z,13.30
2017-06-27T05:49:53.355Z,12.80
2017-06-27T05:52:22.907Z,12.97
2017-06-27T05:54:51.890Z,14.90
2017-06-27T05:57:20.697Z,11.70
2017-06-27T05:59:49.488Z,11.80
2017-06-27T06:02:18.639Z,16.75
2017-06-27T06:04:48.075Z,10.57
2017-06-27T06:07:16.867Z,11.35
2017-06-27T06:09:46.062Z,25.77
2017-06-27T06:12:14.919Z,15.33
2017-06-27T06:14:44.268Z,11.73
2017-06-27T06:17:13.254Z,11.67
2017-06-27T06:19:42.051Z,12.40
2017-06-27T06:22:10.237Z,11.13
2017-06-27T06:24:39.111Z,11.80
2017-06-27T06:27:07.331Z,12.67
2017-06-27T06:29:36.347Z,11.10
2017-06-27T06:32:05.935Z,11.23
2017-06-27T06:34:34.687Z,12.97
2017-06-27T06:37:03.579Z,10.80
2017-06-27T06:39:32.575Z,10.03
2017-06-27T06:42:01.418Z,10.45
2017-06-27T06:44:30.963Z,10.32
2017-06-27T06:46:59.299Z,9.38
2017-06-27T06:49:28.971Z,9.55
2017-06-27T06:51:57.647Z,14.60
2017-06-27T06:54:26.643Z,9.60
2017-06-27T06:56:55.432Z,10.30
2017-06-27T06:59:24.275Z,10.02
2017-06-27T07:01:53.927Z,9.82
2017-06-27T07:04:22.611Z,8.95
2017-06-27T07:06:51.515Z,11.07
2017-06-27T07:09:20.567Z,9.32
2017-06-27T07:11:50.144Z,10.13
2017-06-27T07:14:18.905Z,9.80
2017-06-27T07:16:48.507Z,9.70
2017-06-27T07:19:17.309Z,9.93
2017-06-27T07:21:46.095Z,11.20
2017-06-27T07:24:15.087Z,13.67
2017-06-27T07:26:43.935Z,9.87
2017-06-27T07:29:13.383Z,9.27
2017-06-27T07:31:42.316Z,9.90
2017-06-27T07:34:11.064Z,9.30
2017-06-27T07:36:39.959Z,8.90
2017-06-27T07:39:08.307Z,9.80
2017-06-27T07:41:36.475Z,9.67
2017-06-27T07:44:04.669Z,10.17
2017-06-27T07:46:33.679Z,8.57
2017-06-27T07:49:01.905Z,9.97
2017-06-27T07:51:31.473Z,10.20
2017-06-27T07:54:00.463Z,9.60
2017-06-27T07:56:29.306Z,9.17
2017-06-27T07:58:57.495Z,9.90
2017-06-27T08:01:26.311Z,10.23
2017-06-27T08:03:55.107Z,9.50
2017-06-27T08:06:23.951Z,10.27
2017-06-27T08:08:52.279Z,8.73
2017-06-27T08:11:20.547Z,9.23
2017-06-27T08:13:49.446Z,9.50
2017-06-27T08:16:18.394Z,9.90
2017-06-27T08:18:47.883Z,10.03
2017-06-27T08:21:16.736Z,11.03
2017-06-27T08:23:45.835Z,9.43
2017-06-27T08:26:14.679Z,9.47
2017-06-27T08:28:44.175Z,8.97
2017-06-27T08:31:12.975Z,9.00
2017-06-27T08:33:41.219Z,9.27
2017-06-27T08:36:09.884Z,10.50
2017-06-27T08:38:38.871Z,8.80
2017-06-27T08:41:07.671Z,9.10
2017-06-27T08:43:36.614Z,9.67
2017-06-27T08:46:06.312Z,9.37
2017-06-27T08:48:35.055Z,10.30
2017-06-27T08:51:03.218Z,9.90
2017-06-27T08:53:32.046Z,10.90
2017-06-27T08:56:00.815Z,11.63
2017-06-27T08:58:29.608Z,11.80
2017-06-27T09:00:58.599Z,9.80
2017-06-27T09:03:27.391Z,10.63
2017-06-27T09:05:56.235Z,10.33
2017-06-27T09:08:25.883Z,9.83
2017-06-27T09:10:54.579Z,10.33
2017-06-27T09:13:22.755Z,10.23
2017-06-27T09:15:51.667Z,9.30
2017-06-27T09:18:20.381Z,9.23
2017-06-27T09:20:49.645Z,10.97
2017-06-27T09:23:18.511Z,10.13
2017-06-27T09:25:47.207Z,10.33
2017-06-27T09:28:15.904Z,9.90
2017-06-27T09:30:44.256Z,9.73
2017-06-27T09:33:13.007Z,10.80
2017-06-27T09:35:41.655Z,10.33
2017-06-27T09:38:10.646Z,10.50
2017-06-27T09:40:39.439Z,10.20
2017-06-27T09:43:07.659Z,10.83
2017-06-27T09:45:36.006Z,10.03
2017-06-27T09:48:04.155Z,9.90
2017-06-27T09:50:32.903Z,11.40
2017-06-27T09:53:01.159Z,10.50
2017-06-27T09:55:30.071Z,11.00
2017-06-27T09:57:58.654Z,9.80
2017-06-27T10:00:27.494Z,11.40
2017-06-27T10:02:56.291Z,11.30
2017-06-27T10:05:24.471Z,10.50
2017-06-27T10:07:53.303Z,10.40
2017-06-27T10:10:21.483Z,11.43
2017-06-27T10:12:50.831Z,10.63
2017-06-27T10:15:19.187Z,10.60
2017-06-27T10:17:47.839Z,11.00
2017-06-27T10:20:15.963Z,12.00
2017-06-27T10:22:44.783Z,10.60
2017-06-27T10:25:13.547Z,12.13
2017-06-27T10:27:42.243Z,11.13
2017-06-27T10:30:11.100Z,11.17
2017-06-27T10:32:40.539Z,11.80
2017-06-27T10:35:09.336Z,11.53
2017-06-27T10:37:38.427Z,11.03
2017-06-27T10:40:06.700Z,12.60
2017-06-27T10:42:35.395Z,11.17
2017-06-27T10:45:03.751Z,11.27
2017-06-27T10:47:32.459Z,12.63
2017-06-27T10:50:00.592Z,11.90
2017-06-27T10:52:30.126Z,11.53
2017-06-27T10:54:58.255Z,12.50
2017-06-27T10:57:27.264Z,12.53
2017-06-27T10:59:56.911Z,11.10
2017-06-27T11:02:25.608Z,14.50
2017-06-27T11:04:54.395Z,12.40
2017-06-27T11:07:23.496Z,12.40
2017-06-27T11:09:52.383Z,12.10
2017-06-27T11:12:20.673Z,11.77
2017-06-27T11:14:49.491Z,11.30
2017-06-27T11:17:18.234Z,12.30
2017-06-27T11:19:47.035Z,13.10
2017-06-27T11:22:16.124Z,12.53
2017-06-27T11:24:44.919Z,12.97
2017-06-27T11:27:13.868Z,12.20
2017-06-27T11:29:43.455Z,12.50
2017-06-27T11:32:12.142Z,13.00
2017-06-27T11:34:41.699Z,12.27
2017-06-27T11:37:10.503Z,13.00
2017-06-27T11:39:39.409Z,15.60
2017-06-27T11:42:08.142Z,15.07
2017-06-27T11:44:37.683Z,13.53
2017-06-27T11:47:06.482Z,15.90
2017-06-27T11:49:35.375Z,12.60
2017-06-27T11:52:03.739Z,47.90
2017-06-27T11:54:32.435Z,12.87
2017-06-27T11:57:01.131Z,12.43
2017-06-27T11:59:30.659Z,13.20
2017-06-27T12:02:11.598Z,14.27
2017-06-27T12:04:44.423Z,13.50
2017-06-27T12:07:22.099Z,13.80
2017-06-27T12:09:51.180Z,13.67
2017-06-27T12:12:20.089Z,14.03
2017-06-27T12:14:48.975Z,14.30
2017-06-27T12:17:17.967Z,14.03
2017-06-27T12:19:46.872Z,13.73
2017-06-27T12:22:15.499Z,14.07
2017-06-27T12:24:45.163Z,13.80
2017-06-27T12:27:13.351Z,14.90
2017-06-27T12:29:42.215Z,14.43
2017-06-27T12:32:11.107Z,15.53
2017-06-27T12:34:40.011Z,13.87
2017-06-27T12:37:08.959Z,15.30
2017-06-27T12:39:38.706Z,14.77
2017-06-27T12:42:07.503Z,15.20
2017-06-27T12:44:36.395Z,15.80
2017-06-27T12:47:05.391Z,16.60
2017-06-27T12:49:34.391Z,14.97
2017-06-27T12:52:03.175Z,14.77
2017-06-27T12:54:32.222Z,14.10
2017-06-27T12:57:01.567Z,16.43
2017-06-27T12:59:30.567Z,15.50
2017-06-27T13:01:59.566Z,15.27
2017-06-27T13:04:28.455Z,15.40
2017-06-27T13:06:57.347Z,15.17
2017-06-27T13:09:26.552Z,14.33
2017-06-27T13:11:55.439Z,16.57
2017-06-27T13:14:24.391Z,14.00
2017-06-27T13:16:55.063Z,15.37
2017-06-27T13:19:23.214Z,14.50
2017-06-27T13:21:52.019Z,15.90
2017-06-27T13:24:20.923Z,16.27
2017-06-27T13:26:49.711Z,16.37
2017-06-27T13:29:18.456Z,15.80
2017-06-27T13:31:48.103Z,17.37
2017-06-27T13:34:16.899Z,15.07
2017-06-27T13:36:45.794Z,16.40
2017-06-27T13:39:14.684Z,16.93
2017-06-27T13:41:43.527Z,16.13
2017-06-27T13:44:11.786Z,14.33
2017-06-27T13:46:40.735Z,15.47
2017-06-27T13:49:09.431Z,18.20
2017-06-27T13:51:38.323Z,15.10
2017-06-27T13:54:07.431Z,16.30
2017-06-27T13:56:36.267Z,15.30
2017-06-27T13:59:05.814Z,15.97
2017-06-27T14:01:34.907Z,15.03
2017-06-27T14:04:03.707Z,15.60
2017-06-27T14:06:32.550Z,15.53
2017-06-27T14:09:02.199Z,15.33
2017-06-27T14:11:30.996Z,16.50
2017-06-27T14:13:59.787Z,16.23
2017-06-27T14:16:28.987Z,15.43
2017-06-27T14:18:57.833Z,16.17
2017-06-27T14:21:27.176Z,15.27
2017-06-27T14:23:56.266Z,16.10
2017-06-27T14:26:25.175Z,16.60
2017-06-27T14:28:54.063Z,16.53
2017-06-27T14:31:23.056Z,17.27
2017-06-27T14:33:51.903Z,17.03
2017-06-27T14:36:21.447Z,16.37
2017-06-27T14:38:50.439Z,17.80
2017-06-27T14:41:19.244Z,16.87
2017-06-27T14:43:48.087Z,16.37
2017-06-27T14:46:17.842Z,18.83
2017-06-27T14:48:46.631Z,18.23
2017-06-27T14:51:15.272Z,17.40
2017-06-27T14:53:44.824Z,17.60
2017-06-27T14:56:13.719Z,16.50
2017-06-27T14:58:42.508Z,18.33
2017-06-27T15:01:11.508Z,16.40
2017-06-27T15:03:40.599Z,18.03
2017-06-27T15:06:08.882Z,18.40
2017-06-27T15:08:37.759Z,17.37
2017-06-27T15:11:06.448Z,18.33
2017-06-27T15:13:35.247Z,18.23
2017-06-27T15:16:04.227Z,16.73
2017-06-27T15:18:33.136Z,17.13
2017-06-27T15:21:01.928Z,17.73
2017-06-27T15:23:30.627Z,18.70
2017-06-27T15:25:59.336Z,18.47
2017-06-27T15:28:28.084Z,17.37
2017-06-27T15:30:57.079Z,17.83
2017-06-27T15:33:25.924Z,18.50
2017-06-27T15:35:55.476Z,17.20
2017-06-27T15:38:24.366Z,18.30
2017-06-27T15:40:53.159Z,17.53
2017-06-27T15:43:21.375Z,18.43
2017-06-27T15:45:49.671Z,17.80
2017-06-27T15:48:17.927Z,19.27
2017-06-27T15:50:46.567Z,19.23
2017-06-27T15:53:15.463Z,19.27
2017-06-27T15:55:44.265Z,19.73
2017-06-27T15:58:13.108Z,19.63
2017-06-27T16:00:42.655Z,19.87
2017-06-27T16:03:11.550Z,19.63
2017-06-27T16:05:40.647Z,22.43
2017-06-27T16:08:09.743Z,19.70
2017-06-27T16:10:37.926Z,19.27
2017-06-27T16:13:06.643Z,19.80
2017-06-27T16:15:35.024Z,26.70
2017-06-27T16:18:03.879Z,20.83
2017-06-27T16:20:32.635Z,24.60
2017-06-27T16:23:01.484Z,20.83
2017-06-27T16:25:30.135Z,21.83
2017-06-27T16:27:58.887Z,19.73
2017-06-27T16:30:27.231Z,18.40
2017-06-27T16:32:56.039Z,20.00
2017-06-27T16:35:24.790Z,19.60
2017-06-27T16:37:53.886Z,19.30
2017-06-27T16:40:22.632Z,19.70
2017-06-27T16:42:52.223Z,21.23
2017-06-27T16:45:21.070Z,20.37
2017-06-27T16:47:50.077Z,21.10
2017-06-27T16:50:18.915Z,20.93
2017-06-27T16:52:48.733Z,20.97
2017-06-27T16:55:18.387Z,21.73
2017-06-27T16:57:47.379Z,24.80
2017-06-27T17:00:16.139Z,22.50
2017-06-27T17:02:44.644Z,21.33
2017-06-27T17:05:13.331Z,24.07
2017-06-27T17:07:42.531Z,23.37
2017-06-27T17:10:11.336Z,24.07
2017-06-27T17:12:40.175Z,23.97
2017-06-27T17:15:09.728Z,22.57
2017-06-27T17:17:38.511Z,22.53
2017-06-27T17:20:06.723Z,23.23
2017-06-27T17:22:35.575Z,22.27
2017-06-27T17:25:04.363Z,22.30
2017-06-27T17:27:33.163Z,23.13
2017-06-27T17:30:02.056Z,21.03
2017-06-27T17:32:30.899Z,22.07
2017-06-27T17:34:59.123Z,21.50
2017-06-27T17:37:28.011Z,21.37
2017-06-27T17:39:56.803Z,22.27
2017-06-27T17:42:25.650Z,23.20
2017-06-27T17:44:55.342Z,21.40
2017-06-27T17:47:23.991Z,23.57
2017-06-27T17:49:52.834Z,21.57
2017-06-27T17:52:22.636Z,22.93
2017-06-27T17:54:51.384Z,24.87
2017-06-27T17:57:20.278Z,22.00
2017-06-27T17:59:49.375Z,22.00
2017-06-27T18:02:18.371Z,20.57
2017-06-27T18:04:47.419Z,22.47
2017-06-27T18:07:17.066Z,23.10
2017-06-27T18:09:45.855Z,24.30
2017-06-27T18:12:14.762Z,24.00
2017-06-27T18:14:43.754Z,25.67
2017-06-27T18:17:12.639Z,25.37
2017-06-27T18:19:41.432Z,25.63
2017-06-27T18:22:10.244Z,25.07
2017-06-27T18:24:38.899Z,24.90
2017-06-27T18:27:07.588Z,24.30
2017-06-27T18:29:36.590Z,24.53
2017-06-27T18:32:05.435Z,26.07
2017-06-27T18:34:34.783Z,27.70
2017-06-27T18:37:03.784Z,29.30
2017-06-27T18:39:32.567Z,29.03
2017-06-27T18:42:01.459Z,31.53
2017-06-27T18:44:30.247Z,29.43
2017-06-27T18:46:58.880Z,31.00
2017-06-27T18:49:27.615Z,31.60
2017-06-27T18:51:56.367Z,30.37
2017-06-27T18:54:25.819Z,30.40
2017-06-27T18:56:54.712Z,30.83
2017-06-27T18:59:23.659Z,32.33
2017-06-27T19:01:53.098Z,32.57
2017-06-27T19:04:21.999Z,33.27
2017-06-27T19:06:50.988Z,34.10
2017-06-27T19:09:19.886Z,30.37
2017-06-27T19:11:48.883Z,30.70
2017-06-27T19:14:17.934Z,30.80
2017-06-27T19:16:46.079Z,30.23
2017-06-27T19:19:14.955Z,29.80
2017-06-27T19:21:43.835Z,26.80
2017-06-27T19:24:12.727Z,28.93
2017-06-27T19:26:41.620Z,29.43
2017-06-27T19:29:10.511Z,29.43
2017-06-27T19:31:39.179Z,25.10
2017-06-27T19:34:07.928Z,27.00
2017-06-27T19:36:36.875Z,25.53
2017-06-27T19:39:05.870Z,25.77
2017-06-27T19:41:34.655Z,24.53
2017-06-27T19:44:03.659Z,27.00
2017-06-27T19:46:32.459Z,25.80
2017-06-27T19:49:00.684Z,25.90
2017-06-27T19:51:30.947Z,24.00
2017-06-27T19:53:59.136Z,25.83
2017-06-27T19:56:27.716Z,25.23
2017-06-27T19:58:56.054Z,26.60
2017-06-27T20:01:24.984Z,27.23
2017-06-27T20:03:53.935Z,27.20
2017-06-27T20:06:23.583Z,28.50
2017-06-27T20:08:52.375Z,27.63
2017-06-27T20:11:21.162Z,27.37
2017-06-27T20:13:50.473Z,29.10
2017-06-27T20:16:19.254Z,27.50
2017-06-27T20:18:48.811Z,27.70
2017-06-27T20:21:17.747Z,28.37
2017-06-27T20:23:46.542Z,28.70
2017-06-27T20:26:15.445Z,28.97
2017-06-27T20:28:44.436Z,27.47
2017-06-27T20:31:13.095Z,28.07
2017-06-27T20:33:41.742Z,28.70
2017-06-27T20:36:10.487Z,27.47
2017-06-27T20:38:39.239Z,29.63
2017-06-27T20:41:08.693Z,28.23
2017-06-27T20:43:37.580Z,29.33
2017-06-27T20:46:06.371Z,28.47
2017-06-27T20:48:35.220Z,28.47
2017-06-27T20:51:04.758Z,29.40
2017-06-27T20:53:33.459Z,27.47
2017-06-27T20:56:02.351Z,27.47
2017-06-27T20:58:30.736Z,25.30
2017-06-27T21:00:58.919Z,25.97
2017-06-27T21:03:27.852Z,26.30
2017-06-27T21:05:57.546Z,24.83
2017-06-27T21:08:26.287Z,25.13
2017-06-27T21:10:55.087Z,26.83
2017-06-27T21:13:24.035Z,26.43
2017-06-27T21:15:52.366Z,28.83
2017-06-27T21:18:21.140Z,26.30
2017-06-27T21:20:50.031Z,26.97
2017-06-27T21:23:18.837Z,26.60
2017-06-27T21:25:47.650Z,29.27
2017-06-27T21:28:16.616Z,29.27
2017-06-27T21:30:45.100Z,29.20
2017-06-27T21:33:13.296Z,29.70
2017-06-27T21:35:42.332Z,27.57
2017-06-27T21:38:10.519Z,26.73
2017-06-27T21:40:39.120Z,27.90
2017-06-27T21:43:08.116Z,28.27
2017-06-27T21:45:37.016Z,28.30
2017-06-27T21:48:05.193Z,28.30
2017-06-27T21:50:33.491Z,27.97
2017-06-27T21:53:01.723Z,29.47
2017-06-27T21:55:30.371Z,27.87
2017-06-27T21:57:58.688Z,28.03
2017-06-27T22:00:27.603Z,29.57
2017-06-27T22:02:56.496Z,29.10
2017-06-27T22:05:25.272Z,28.90
2017-06-27T22:07:53.971Z,27.17
2017-06-27T22:10:22.651Z,27.50
2017-06-27T22:12:51.000Z,28.93
2017-06-27T22:15:20.539Z,27.63
2017-06-27T22:17:49.538Z,29.43
2017-06-27T22:20:18.435Z,30.77
2017-06-27T22:22:47.278Z,30.07
2017-06-27T22:25:16.828Z,30.87
2017-06-27T22:27:45.615Z,30.20
2017-06-27T22:30:14.521Z,29.20
2017-06-27T22:32:43.407Z,31.70
2017-06-27T22:35:12.351Z,31.23
2017-06-27T22:37:41.791Z,32.00
2017-06-27T22:40:10.599Z,35.67
2017-06-27T22:42:39.645Z,34.00
2017-06-27T22:45:07.877Z,35.53
2017-06-27T22:47:36.642Z,33.13
2017-06-27T22:50:05.744Z,32.33
2017-06-27T22:52:34.548Z,35.23
2017-06-27T22:55:03.437Z,34.20
2017-06-27T22:57:32.532Z,33.20
2017-06-27T23:00:01.332Z,32.93
2017-06-27T23:02:29.979Z,32.93
2017-06-27T23:04:58.891Z,32.03
2017-06-27T23:07:27.631Z,32.20
2017-06-27T23:09:56.276Z,32.03
2017-06-27T23:12:24.566Z,32.13
2017-06-27T23:14:53.184Z,33.20
2017-06-27T23:17:22.952Z,32.10
2017-06-27T23:19:52.152Z,33.83
2017-06-27T23:22:21.043Z,35.63
2017-06-27T23:24:49.259Z,34.40
2017-06-27T23:27:18.099Z,34.57
2017-06-27T23:29:46.898Z,35.87
2017-06-27T23:32:15.791Z,38.97
2017-06-27T23:34:44.843Z,36.27
2017-06-27T23:37:14.283Z,34.60
2017-06-27T23:39:42.502Z,37.40
2017-06-27T23:42:11.301Z,38.23
2017-06-27T23:44:39.944Z,36.33
2017-06-27T23:47:08.839Z,37.90
2017-06-27T23:49:37.022Z,39.83
2017-06-27T23:52:05.791Z,40.00
2017-06-27T23:54:34.479Z,40.87
2017-06-27T23:57:03.382Z,40.00
2017-06-27T23:59:32.227Z,39.27
